Latest Coastal Weather Observations for Portland Harbour

IDS60701

Issued at 10:51 pm CST Friday 1 July 2016 (issued every 10 minutes, with the page automatically refreshed every 10 minutes)

About coastal observations | Map of coastal stations | Coastal observations for SA | Marine services | Other Formats
Station Details ID: 090192 Name: PORTLAND NTC AWS Lat: -38.34 Lon: 141.61 Height: 0.0 m
Data from the previous 72 hours. | See also: Recent months for locations in South Australia
Date/Time
CST
Temp
°C
Wind Pressure Rain since
9am
mm
Weather Cloud Vis
km
Sea
Height
m
Swell
Dir  Spd
kts
Gust
kts
hPa Trend Height
m
Period
s
Dir
01/10:30pm 12.7 WNW 6 9 1022.1 - - - - - - - - -
01/10:00pm 12.6 W 7 10 1022.1 - - - - - - - - -
01/09:30pm 12.4 W 9 14 1022.0 - - - - - - - - -
01/09:00pm 12.9 W 5 9 1021.9 - - - - - - - - -
01/08:30pm 12.6 W 4 7 1021.9 - - - - - - - - -
01/08:00pm 12.5 W 8 11 1021.8 - - - - - - - - -
01/07:30pm 12.6 W 9 13 1021.9 - - - - - - - - -
01/07:00pm 12.3 WNW 6 9 1021.5 - - - - - - - - -
01/06:30pm 12.5 WNW 9 14 1021.3 - - - - - - - - -
01/06:00pm 12.3 NW 6 9 1021.1 - - - - - - - - -
01/05:30pm 12.2 W 7 12 1020.9 - - - - - - - - -
01/05:00pm 13.2 WNW 10 15 1020.4 - - - - - - - - -
01/04:30pm 13.5 NW 11 16 1020.1 - - - - - - - - -
01/04:00pm 13.8 WNW 11 15 1020.1 - - - - - - - - -
01/03:30pm 13.8 WNW 10 15 1020.0 - - - - - - - - -
01/03:00pm 13.9 W 12 18 1019.9 - - - - - - - - -
01/02:30pm 13.7 W 13 19 1019.9 - - - - - - - - -
01/02:00pm 13.9 W 11 18 1019.9 - - - - - - - - -
01/01:30pm 13.4 W 12 18 1020.0 - - - - - - - - -
01/01:00pm 13.8 W 12 17 1020.0 - - - - - - - - -
01/12:30pm 13.5 W 11 18 1020.1 - - - - - - - - -
01/12:00pm 13.4 W 12 19 1020.4 - - - - - - - - -
01/11:30am 12.9 W 12 19 1020.7 - - - - - - - - -
01/11:00am 12.8 WSW 9 16 1020.8 - - - - - - - - -
01/10:30am 12.2 W 10 15 1021.1 - - - - - - - - -
01/10:00am 13.2 W 10 15 1020.9 - - - - - - - - -
01/09:30am 12.4 W 10 17 1020.7 - - - - - - - - -
01/09:00am 11.8 WSW 9 14 1020.4 - - - - - - - - -
01/08:30am 11.8 WSW 7 10 1020.1 - - - - - - - - -
01/08:00am 11.0 W 6 9 1019.8 - - - - - - - - -
01/07:30am 11.1 W 6 8 1019.4 - - - - - - - - -
01/07:00am 11.6 WSW 8 15 1019.2 - - - - - - - - -
01/06:30am 11.8 SW 11 16 1018.9 - - - - - - - - -
01/06:00am 11.4 SW 11 15 1018.5 - - - - - - - - -
01/05:30am 11.5 SW 11 16 1018.0 - - - - - - - - -
01/05:00am 11.2 SW 9 13 1017.8 - - - - - - - - -
01/04:30am 11.3 SW 12 18 1017.3 - - - - - - - - -
01/04:00am 11.4 WSW 10 15 1016.9 - - - - - - - - -
01/03:30am 11.8 SW 14 22 1016.6 - - - - - - - - -
01/03:00am 11.7 SW 15 21 1016.3 - - - - - - - - -
01/02:30am 11.7 SW 17 25 1015.8 - - - - - - - - -
01/02:00am 11.6 SW 15 22 1015.5 - - - - - - - - -
01/01:30am 10.5 SSW 17 24 1015.1 - - - - - - - - -
01/01:00am 11.2 SW 15 25 1014.6 - - - - - - - - -
01/12:30am 11.6 SW 17 25 1014.1 - - - - - - - - -
01/12:01am 12.0 SW 17 28 1013.7 - - - - - - - - -
01/12:00am 12.1 SW 16 24 1013.7 - - - - - - - - -
 
Date/Time
CST
Temp
°C
Wind Pressure Rain since
9am
mm
Weather Cloud Vis
km
Sea
Height
m
Swell
Dir  Spd
kts
Gust
kts
hPa Trend Height
m
Period
s
Dir
30/11:32pm 12.2 SW 15 25 1013.1 - - - - - - - - -
30/11:30pm 12.0 SW 14 21 1013.0 - - - - - - - - -
30/11:00pm 12.0 SW 14 20 1012.4 - - - - - - - - -
30/10:43pm 11.4 SSW 15 26 1012.2 - - - - - - - - -
30/10:30pm 12.3 SW 13 20 1012.0 - - - - - - - - -
30/10:00pm 12.4 SSW 14 21 1011.1 - - - - - - - - -
30/09:30pm 12.5 S 15 20 1010.5 - - - - - - - - -
30/09:00pm 12.0 SSW 20 32 1009.6 - - - - - - - - -
30/08:53pm 12.3 SSW 17 32 1009.6 - - - - - - - - -
30/08:30pm 12.4 SSW 19 28 1008.7 - - - - - - - - -
30/08:00pm 12.3 SW 18 29 1008.1 - - - - - - - - -
30/07:40pm 12.3 SSW 22 33 1007.7 - - - - - - - - -
30/07:30pm 12.0 SW 22 31 1007.4 - - - - - - - - -
30/07:00pm 12.0 SW 24 34 1006.2 - - - - - - - - -
30/06:30pm 12.1 SW 24 34 1005.1 - - - - - - - - -
30/06:00pm 11.3 WSW 22 33 1004.1 - - - - - - - - -
30/05:32pm 10.6 WSW 21 37 1003.6 - - - - - - - - -
30/05:30pm 10.6 W 20 30 1003.3 - - - - - - - - -
30/05:00pm 10.5 W 21 33 1003.1 - - - - - - - - -
30/04:30pm 10.2 W 21 39 1003.3 - - - - - - - - -
30/04:00pm 11.6 W 17 30 1003.4 - - - - - - - - -
30/03:31pm 10.9 W 15 26 1003.5 - - - - - - - - -
30/03:30pm 10.7 W 14 23 1003.6 - - - - - - - - -
30/03:00pm 10.4 W 18 35 1003.6 - - - - - - - - -
30/02:30pm 11.4 W 16 27 1003.2 - - - - - - - - -
30/02:05pm 11.3 W 15 27 1003.3 - - - - - - - - -
30/02:00pm 10.7 W 13 23 1003.3 - - - - - - - - -
30/01:34pm 11.0 W 15 26 1003.2 - - - - - - - - -
30/01:30pm 11.0 W 13 25 1003.3 - - - - - - - - -
30/01:00pm 10.7 NW 13 18 1003.1 - - - - - - - - -
30/12:30pm 9.6 NW 14 25 1003.6 - - - - - - - - -
30/12:00pm 9.5 WNW 14 22 1003.6 - - - - - - - - -
30/11:31am 9.8 WNW 15 27 1004.0 - - - - - - - - -
30/11:30am 9.8 WNW 14 27 1004.1 - - - - - - - - -
30/11:05am 10.0 WNW 17 37 1004.5 - - - - - - - - -
30/11:02am 9.9 WNW 18 37 1004.4 - - - - - - - - -
30/11:00am 9.8 NW 17 37 1004.3 - - - - - - - - -
30/10:59am 10.3 NW 15 37 1004.3 - - - - - - - - -
30/10:30am 10.7 NNW 13 21 1004.0 - - - - - - - - -
30/10:00am 10.6 NNW 16 22 1004.1 - - - - - - - - -
30/09:30am 10.4 NNW 17 24 1004.3 - - - - - - - - -
30/09:00am 10.5 NNW 14 21 1004.7 - - - - - - - - -
30/08:30am 10.6 NNW 20 26 1004.1 - - - - - - - - -
30/08:00am 10.5 NNW 21 29 1004.2 - - - - - - - - -
30/07:55am 10.4 NNW 18 29 1004.1 - - - - - - - - -
30/07:30am 10.4 NNW 18 23 1004.3 - - - - - - - - -
30/07:01am 10.2 NNW 17 27 1004.5 - - - - - - - - -
30/07:00am 10.2 NNW 17 25 1004.6 - - - - - - - - -
30/06:30am 10.3 NNW 16 22 1005.1 - - - - - - - - -
30/06:23am 9.9 NNW 15 25 1005.6 - - - - - - - - -
30/06:00am 10.3 NNW 18 24 1005.9 - - - - - - - - -
30/05:46am 10.3 NNW 17 27 1006.0 - - - - - - - - -
30/05:30am 10.5 NNW 22 31 1005.5 - - - - - - - - -
30/05:03am 10.7 NNW 21 31 1005.7 - - - - - - - - -
30/05:00am 10.7 NNW 22 31 1005.6 - - - - - - - - -
30/04:30am 10.7 NNW 18 25 1006.1 - - - - - - - - -
30/04:00am 10.6 NNW 17 21 1006.6 - - - - - - - - -
30/03:30am 10.4 N 17 22 1007.1 - - - - - - - - -
30/03:00am 10.5 NNW 15 21 1008.0 - - - - - - - - -
30/02:30am 11.1 NNW 17 24 1008.7 - - - - - - - - -
30/02:00am 11.7 NNW 20 27 1009.0 - - - - - - - - -
30/01:30am 12.0 N 21 28 1009.4 - - - - - - - - -
30/01:23am 12.0 N 22 32 1009.5 - - - - - - - - -
30/01:00am 12.1 N 22 28 1009.6 - - - - - - - - -
30/12:30am 12.0 N 21 27 1010.0 - - - - - - - - -
30/12:00am 12.1 N 22 28 1010.8 - - - - - - - - -
 
Date/Time
CST
Temp
°C
Wind Pressure Rain since
9am
mm
Weather Cloud Vis
km
Sea
Height
m
Swell
Dir  Spd
kts
Gust
kts
hPa Trend Height
m
Period
s
Dir
29/11:30pm 12.2 N 22 28 1011.3 - - - - - - - - -
29/11:00pm 12.2 N 18 23 1011.8 - - - - - - - - -
29/10:30pm 12.3 N 23 28 1012.1 - - - - - - - - -
29/10:00pm 12.2 N 20 25 1012.6 - - - - - - - - -
29/09:30pm 12.4 N 19 24 1013.4 - - - - - - - - -
29/09:00pm 12.6 N 21 26 1013.8 - - - - - - - - -
29/08:30pm 12.9 N 20 27 1014.3 - - - - - - - - -
29/08:00pm 12.9 NNW 19 25 1015.1 - - - - - - - - -
29/07:30pm 12.9 N 20 27 1015.5 - - - - - - - - -
29/07:00pm 12.7 N 14 22 1015.8 - - - - - - - - -
29/06:30pm 12.5 N 9 12 1016.0 - - - - - - - - -
29/06:00pm 12.7 N 11 13 1016.2 - - - - - - - - -
29/05:30pm 12.7 N 11 15 1016.1 - - - - - - - - -
29/05:00pm 12.9 N 11 13 1016.2 - - - - - - - - -
29/04:30pm 13.1 N 12 17 1016.6 - - - - - - - - -
29/04:00pm 13.4 N 15 19 1016.8 - - - - - - - - -
29/03:30pm 13.4 N 12 15 1017.2 - - - - - - - - -
29/03:00pm 13.9 NNW 19 27 1017.6 - - - - - - - - -
29/02:48pm 13.9 NNW 16 28 1017.7 - - - - - - - - -
29/02:30pm 13.9 NNW 13 19 1018.0 - - - - - - - - -
29/02:00pm 13.8 NNW 16 23 1018.3 - - - - - - - - -
29/01:30pm 13.8 NNW 15 20 1018.8 - - - - - - - - -
29/01:00pm 13.9 NNW 16 21 1019.4 - - - - - - - - -
29/12:30pm 13.8 N 13 19 1020.2 - - - - - - - - -
29/12:00pm 13.3 N 11 15 1020.9 - - - - - - - - -
29/11:30am 13.1 NNW 14 18 1021.7 - - - - - - - - -
29/11:00am 12.6 N 12 14 1022.3 - - - - - - - - -
29/10:30am 11.6 NNW 14 17 1022.8 - - - - - - - - -
29/10:00am 11.0 NNW 13 16 1023.2 - - - - - - - - -
29/09:30am 10.5 NNW 10 13 1023.5 - - - - - - - - -
29/09:00am 10.1 NNW 12 15 1023.6 - - - - - - - - -
29/08:30am 9.7 NNW 11 13 1023.7 - - - - - - - - -
29/08:00am 9.4 NNW 9 12 1023.9 - - - - - - - - -
29/07:30am 9.4 NNW 9 11 1023.8 - - - - - - - - -
29/07:00am 10.0 NNW 9 12 1023.7 - - - - - - - - -
29/06:30am 10.1 NNW 9 12 1023.8 - - - - - - - - -
29/06:00am 10.6 NNW 12 15 1023.7 - - - - - - - - -
29/05:30am 10.8 NNW 8 12 1023.6 - - - - - - - - -
29/05:00am 10.7 NW 5 8 1023.5 - - - - - - - - -
29/04:30am 10.9 NNW 9 13 1023.3 - - - - - - - - -
29/04:00am 10.8 NNW 7 10 1023.3 - - - - - - - - -
29/03:30am 11.1 NNW 10 12 1023.3 - - - - - - - - -
29/03:00am 10.9 NNW 6 10 1023.6 - - - - - - - - -
29/02:30am 11.2 N 9 12 1023.6 - - - - - - - - -
29/02:00am 10.9 NW 7 9 1023.9 - - - - - - - - -
29/01:30am 11.1 NNW 7 12 1023.7 - - - - - - - - -
29/01:00am 11.2 NW 9 12 1023.6 - - - - - - - - -
29/12:30am 11.2 NNW 10 13 1023.6 - - - - - - - - -
29/12:00am 11.4 NNW 9 12 1023.9 - - - - - - - - -
 
Date/Time
CST
Temp
°C
Wind Pressure Rain since
9am
mm
Weather Cloud Vis
km
Sea
Height
m
Swell
Dir  Spd
kts
Gust
kts
hPa Trend Height
m
Period
s
Dir
28/11:30pm 11.5 NNW 9 12 1023.9 - - - - - - - - -
28/11:00pm 11.5 NW 8 11 1024.0 - - - - - - - - -
28/10:30pm 11.7 NNW 8 10 1023.9 - - - - - - - - -

Other Formats:

Comma delimited format used in spreadsheet applications
http://www.bom.gov.au/fwo/IDS60701/IDS60701.95826.axf

JavaScript Object Notation format (JSON) in row-major order
http://www.bom.gov.au/fwo/IDS60701/IDS60701.95826.json